sensor_id;sensor_type;location;lat;lon;timestamp;P1;durP1;ratioP1;P2;durP2;ratioP2
81312;SDS011;70780;52.722;5.724;2023-06-22T00:21:05;7.78;;;5.38;;
81312;SDS011;70780;52.722;5.724;2023-06-22T00:23:34;7.32;;;4.90;;
81312;SDS011;70780;52.722;5.724;2023-06-22T00:26:03;8.75;;;4.68;;
81312;SDS011;70780;52.722;5.724;2023-06-22T00:28:33;6.72;;;4.68;;
81312;SDS011;70780;52.722;5.724;2023-06-22T00:31:02;6.75;;;4.95;;
81312;SDS011;70780;52.722;5.724;2023-06-22T00:33:32;8.00;;;5.43;;
81312;SDS011;70780;52.722;5.724;2023-06-22T00:36:07;6.95;;;4.88;;
81312;SDS011;70780;52.722;5.724;2023-06-22T00:38:38;6.95;;;4.57;;
81312;SDS011;70780;52.722;5.724;2023-06-22T00:41:08;7.40;;;4.65;;
81312;SDS011;70780;52.722;5.724;2023-06-22T00:43:37;7.28;;;5.03;;
81312;SDS011;70780;52.722;5.724;2023-06-22T00:46:07;6.30;;;4.75;;
81312;SDS011;70780;52.722;5.724;2023-06-22T00:48:38;8.63;;;5.13;;
81312;SDS011;70780;52.722;5.724;2023-06-22T00:51:12;7.03;;;5.22;;
81312;SDS011;70780;52.722;5.724;2023-06-22T00:53:41;6.68;;;5.30;;
81312;SDS011;70780;52.722;5.724;2023-06-22T00:56:11;7.35;;;5.75;;
81312;SDS011;70780;52.722;5.724;2023-06-22T00:58:41;6.63;;;4.95;;
81312;SDS011;70780;52.722;5.724;2023-06-22T01:01:10;8.60;;;5.72;;
81312;SDS011;70780;52.722;5.724;2023-06-22T01:03:39;7.68;;;5.40;;
81312;SDS011;70780;52.722;5.724;2023-06-22T01:06:13;9.55;;;5.43;;
81312;SDS011;70780;52.722;5.724;2023-06-22T01:09:06;7.95;;;4.80;;
81312;SDS011;70780;52.722;5.724;2023-06-22T01:11:42;7.82;;;5.15;;
81312;SDS011;70780;52.722;5.724;2023-06-22T01:14:18;9.48;;;5.65;;
81312;SDS011;70780;52.722;5.724;2023-06-22T01:16:56;7.05;;;5.05;;
81312;SDS011;70780;52.722;5.724;2023-06-22T01:19:29;8.60;;;5.70;;
81312;SDS011;70780;52.722;5.724;2023-06-22T01:22:10;7.22;;;5.50;;
81312;SDS011;70780;52.722;5.724;2023-06-22T01:24:46;6.85;;;5.40;;
81312;SDS011;70780;52.722;5.724;2023-06-22T01:27:36;9.70;;;5.95;;
81312;SDS011;70780;52.722;5.724;2023-06-22T02:18:08;9.68;;;6.78;;
81312;SDS011;70780;52.722;5.724;2023-06-22T02:20:37;9.63;;;6.65;;
81312;SDS011;70780;52.722;5.724;2023-06-22T02:23:07;8.88;;;6.72;;
81312;SDS011;70780;52.722;5.724;2023-06-22T02:25:36;7.82;;;6.25;;
81312;SDS011;70780;52.722;5.724;2023-06-22T02:28:10;8.32;;;6.28;;
81312;SDS011;70780;52.722;5.724;2023-06-22T02:30:39;8.40;;;6.45;;
81312;SDS011;70780;52.722;5.724;2023-06-22T02:33:11;8.50;;;6.40;;
81312;SDS011;70780;52.722;5.724;2023-06-22T02:35:40;8.43;;;6.40;;
81312;SDS011;70780;52.722;5.724;2023-06-22T02:38:11;7.95;;;6.25;;
81312;SDS011;70780;52.722;5.724;2023-06-22T02:40:40;8.95;;;6.30;;
81312;SDS011;70780;52.722;5.724;2023-06-22T02:43:10;8.40;;;6.25;;
81312;SDS011;70780;52.722;5.724;2023-06-22T02:45:39;8.85;;;6.45;;
81312;SDS011;70780;52.722;5.724;2023-06-22T02:48:11;9.00;;;6.22;;
81312;SDS011;70780;52.722;5.724;2023-06-22T02:50:41;8.77;;;6.05;;
81312;SDS011;70780;52.722;5.724;2023-06-22T02:53:10;7.95;;;5.95;;
81312;SDS011;70780;52.722;5.724;2023-06-22T02:55:44;7.82;;;5.78;;
81312;SDS011;70780;52.722;5.724;2023-06-22T02:58:14;7.85;;;5.90;;
81312;SDS011;70780;52.722;5.724;2023-06-22T03:00:43;7.47;;;5.68;;
81312;SDS011;70780;52.722;5.724;2023-06-22T03:03:15;8.73;;;6.65;;
81312;SDS011;70780;52.722;5.724;2023-06-22T03:08:14;9.13;;;6.72;;
81312;SDS011;70780;52.722;5.724;2023-06-22T03:10:43;9.20;;;6.68;;
81312;SDS011;70780;52.722;5.724;2023-06-22T03:13:13;8.00;;;6.10;;
81312;SDS011;70780;52.722;5.724;2023-06-22T03:15:42;8.52;;;6.63;;
81312;SDS011;70780;52.722;5.724;2023-06-22T03:18:12;8.13;;;6.18;;
81312;SDS011;70780;52.722;5.724;2023-06-22T03:20:44;11.55;;;7.45;;
81312;SDS011;70780;52.722;5.724;2023-06-22T03:23:13;7.13;;;6.07;;
81312;SDS011;70780;52.722;5.724;2023-06-22T10:37:06;3.55;;;1.90;;
81312;SDS011;70780;52.722;5.724;2023-06-22T10:39:36;11.00;;;6.03;;
81312;SDS011;70780;52.722;5.724;2023-06-22T10:42:05;7.50;;;5.80;;
81312;SDS011;70780;52.722;5.724;2023-06-22T10:44:35;9.65;;;6.00;;
81312;SDS011;70780;52.722;5.724;2023-06-22T10:47:05;7.93;;;5.50;;
81312;SDS011;70780;52.722;5.724;2023-06-22T10:49:34;6.68;;;5.40;;
81312;SDS011;70780;52.722;5.724;2023-06-22T10:52:07;8.55;;;5.22;;
81312;SDS011;70780;52.722;5.724;2023-06-22T10:54:37;8.35;;;5.57;;
81312;SDS011;70780;52.722;5.724;2023-06-22T10:57:06;8.27;;;5.70;;
81312;SDS011;70780;52.722;5.724;2023-06-22T10:59:36;6.30;;;4.78;;
81312;SDS011;70780;52.722;5.724;2023-06-22T11:02:05;7.00;;;5.07;;
81312;SDS011;70780;52.722;5.724;2023-06-22T11:04:34;7.47;;;5.00;;
81312;SDS011;70780;52.722;5.724;2023-06-22T11:07:06;5.75;;;4.53;;
81312;SDS011;70780;52.722;5.724;2023-06-22T11:09:36;7.68;;;4.63;;
81312;SDS011;70780;52.722;5.724;2023-06-22T11:12:06;5.72;;;4.13;;
81312;SDS011;70780;52.722;5.724;2023-06-22T11:14:35;6.88;;;4.28;;
81312;SDS011;70780;52.722;5.724;2023-06-22T11:17:05;6.05;;;4.15;;
81312;SDS011;70780;52.722;5.724;2023-06-22T11:19:34;7.30;;;4.07;;
81312;SDS011;70780;52.722;5.724;2023-06-22T11:22:04;4.72;;;3.80;;
81312;SDS011;70780;52.722;5.724;2023-06-22T11:24:36;5.75;;;3.92;;
81312;SDS011;70780;52.722;5.724;2023-06-22T11:27:05;5.05;;;3.75;;
81312;SDS011;70780;52.722;5.724;2023-06-22T11:29:35;4.30;;;3.45;;
81312;SDS011;70780;52.722;5.724;2023-06-22T11:32:05;4.72;;;3.33;;
81312;SDS011;70780;52.722;5.724;2023-06-22T11:34:36;5.88;;;3.13;;
81312;SDS011;70780;52.722;5.724;2023-06-22T11:37:08;5.63;;;3.45;;
81312;SDS011;70780;52.722;5.724;2023-06-22T11:39:37;5.55;;;3.25;;
81312;SDS011;70780;52.722;5.724;2023-06-22T11:42:06;3.63;;;2.88;;
81312;SDS011;70780;52.722;5.724;2023-06-22T11:44:36;5.57;;;3.40;;
81312;SDS011;70780;52.722;5.724;2023-06-22T11:47:06;4.22;;;2.88;;
81312;SDS011;70780;52.722;5.724;2023-06-22T11:49:35;4.82;;;3.28;;
81312;SDS011;70780;52.722;5.724;2023-06-22T11:52:08;4.05;;;2.80;;
81312;SDS011;70780;52.722;5.724;2023-06-22T11:54:37;3.88;;;2.55;;
81312;SDS011;70780;52.722;5.724;2023-06-22T11:57:07;4.35;;;2.63;;
81312;SDS011;70780;52.722;5.724;2023-06-22T11:59:36;4.43;;;2.60;;
81312;SDS011;70780;52.722;5.724;2023-06-22T12:02:05;3.92;;;2.63;;
81312;SDS011;70780;52.722;5.724;2023-06-22T12:04:35;4.60;;;2.63;;
81312;SDS011;70780;52.722;5.724;2023-06-22T12:07:04;3.60;;;2.80;;
81312;SDS011;70780;52.722;5.724;2023-06-22T12:09:36;3.75;;;2.60;;
81312;SDS011;70780;52.722;5.724;2023-06-22T12:12:06;3.20;;;2.40;;
81312;SDS011;70780;52.722;5.724;2023-06-22T12:14:36;5.10;;;2.30;;
81312;SDS011;70780;52.722;5.724;2023-06-22T12:17:05;3.92;;;2.40;;
81312;SDS011;70780;52.722;5.724;2023-06-22T12:19:35;3.28;;;2.58;;
81312;SDS011;70780;52.722;5.724;2023-06-22T12:22:04;2.67;;;2.30;;
81312;SDS011;70780;52.722;5.724;2023-06-22T12:24:36;3.45;;;2.67;;
81312;SDS011;70780;52.722;5.724;2023-06-22T12:27:05;3.38;;;2.22;;
81312;SDS011;70780;52.722;5.724;2023-06-22T12:29:36;3.83;;;2.67;;
81312;SDS011;70780;52.722;5.724;2023-06-22T12:32:06;5.05;;;2.67;;
81312;SDS011;70780;52.722;5.724;2023-06-22T12:34:38;4.47;;;2.72;;
81312;SDS011;70780;52.722;5.724;2023-06-22T12:37:08;3.80;;;3.00;;
81312;SDS011;70780;52.722;5.724;2023-06-22T12:39:40;3.90;;;3.05;;
81312;SDS011;70780;52.722;5.724;2023-06-22T12:42:10;5.88;;;3.30;;
81312;SDS011;70780;52.722;5.724;2023-06-22T12:44:39;6.47;;;3.58;;
81312;SDS011;70780;52.722;5.724;2023-06-22T12:47:09;5.57;;;2.83;;
81312;SDS011;70780;52.722;5.724;2023-06-22T12:49:39;4.30;;;3.50;;
81312;SDS011;70780;52.722;5.724;2023-06-22T12:52:08;3.63;;;3.00;;
81312;SDS011;70780;52.722;5.724;2023-06-22T12:54:41;6.30;;;3.20;;
81312;SDS011;70780;52.722;5.724;2023-06-22T12:57:10;3.65;;;2.92;;
81312;SDS011;70780;52.722;5.724;2023-06-22T12:59:40;5.93;;;3.63;;
81312;SDS011;70780;52.722;5.724;2023-06-22T13:02:09;4.82;;;3.30;;
81312;SDS011;70780;52.722;5.724;2023-06-22T13:04:39;6.00;;;3.28;;
81312;SDS011;70780;52.722;5.724;2023-06-22T13:07:08;6.88;;;3.60;;
81312;SDS011;70780;52.722;5.724;2023-06-22T13:09:38;5.70;;;3.15;;
81312;SDS011;70780;52.722;5.724;2023-06-22T13:12:12;3.67;;;3.25;;
81312;SDS011;70780;52.722;5.724;2023-06-22T13:14:41;5.90;;;3.30;;
81312;SDS011;70780;52.722;5.724;2023-06-22T13:17:12;6.10;;;3.90;;
81312;SDS011;70780;52.722;5.724;2023-06-22T13:19:41;7.82;;;4.10;;
81312;SDS011;70780;52.722;5.724;2023-06-22T13:22:25;5.50;;;3.45;;
81312;SDS011;70780;52.722;5.724;2023-06-22T13:24:59;8.02;;;4.50;;
81312;SDS011;70780;52.722;5.724;2023-06-22T13:27:29;5.70;;;3.83;;
81312;SDS011;70780;52.722;5.724;2023-06-22T13:29:58;5.57;;;4.03;;
81312;SDS011;70780;52.722;5.724;2023-06-22T13:32:28;7.60;;;3.70;;
81312;SDS011;70780;52.722;5.724;2023-06-22T13:34:57;5.68;;;3.30;;
81312;SDS011;70780;52.722;5.724;2023-06-22T13:37:27;4.43;;;3.67;;
81312;SDS011;70780;52.722;5.724;2023-06-22T13:39:59;4.97;;;4.18;;
81312;SDS011;70780;52.722;5.724;2023-06-22T13:42:31;7.18;;;4.78;;
81312;SDS011;70780;52.722;5.724;2023-06-22T13:45:00;5.82;;;3.35;;
81312;SDS011;70780;52.722;5.724;2023-06-22T13:47:29;5.25;;;3.30;;
81312;SDS011;70780;52.722;5.724;2023-06-22T13:49:59;4.93;;;3.67;;
81312;SDS011;70780;52.722;5.724;2023-06-22T13:52:28;5.57;;;3.53;;
81312;SDS011;70780;52.722;5.724;2023-06-22T13:55:00;5.47;;;3.05;;
81312;SDS011;70780;52.722;5.724;2023-06-22T13:57:30;4.47;;;3.58;;
81312;SDS011;70780;52.722;5.724;2023-06-22T13:59:59;5.38;;;3.50;;
81312;SDS011;70780;52.722;5.724;2023-06-22T14:02:37;5.00;;;3.30;;
81312;SDS011;70780;52.722;5.724;2023-06-22T14:05:07;5.55;;;3.03;;
81312;SDS011;70780;52.722;5.724;2023-06-22T14:07:37;4.60;;;3.38;;
81312;SDS011;70780;52.722;5.724;2023-06-22T14:10:09;4.68;;;3.47;;
81312;SDS011;70780;52.722;5.724;2023-06-22T14:12:39;4.57;;;2.95;;
81312;SDS011;70780;52.722;5.724;2023-06-22T14:15:08;4.07;;;3.35;;
81312;SDS011;70780;52.722;5.724;2023-06-22T14:17:38;6.32;;;2.67;;
81312;SDS011;70780;52.722;5.724;2023-06-22T14:20:08;4.53;;;3.17;;
81312;SDS011;70780;52.722;5.724;2023-06-22T14:22:37;5.78;;;3.33;;
81312;SDS011;70780;52.722;5.724;2023-06-22T14:25:09;3.85;;;2.92;;
81312;SDS011;70780;52.722;5.724;2023-06-22T14:27:38;5.55;;;3.25;;
81312;SDS011;70780;52.722;5.724;2023-06-22T14:30:10;5.50;;;3.03;;
81312;SDS011;70780;52.722;5.724;2023-06-22T14:32:39;6.30;;;3.67;;
81312;SDS011;70780;52.722;5.724;2023-06-22T14:35:11;4.72;;;3.22;;
81312;SDS011;70780;52.722;5.724;2023-06-22T14:37:40;5.78;;;3.60;;
81312;SDS011;70780;52.722;5.724;2023-06-22T14:40:13;5.05;;;3.42;;
81312;SDS011;70780;52.722;5.724;2023-06-22T14:42:42;4.18;;;3.30;;
81312;SDS011;70780;52.722;5.724;2023-06-22T14:45:12;4.53;;;3.35;;
81312;SDS011;70780;52.722;5.724;2023-06-22T14:47:42;5.35;;;3.22;;
81312;SDS011;70780;52.722;5.724;2023-06-22T14:50:11;6.13;;;4.07;;
81312;SDS011;70780;52.722;5.724;2023-06-22T14:52:40;6.18;;;3.92;;
81312;SDS011;70780;52.722;5.724;2023-06-22T14:55:12;5.22;;;4.05;;
81312;SDS011;70780;52.722;5.724;2023-06-22T14:57:42;5.05;;;4.32;;
81312;SDS011;70780;52.722;5.724;2023-06-22T15:00:11;5.28;;;3.80;;
81312;SDS011;70780;52.722;5.724;2023-06-22T15:02:41;6.10;;;3.97;;
81312;SDS011;70780;52.722;5.724;2023-06-22T15:05:10;5.40;;;4.30;;
81312;SDS011;70780;52.722;5.724;2023-06-22T15:07:40;6.30;;;4.40;;
81312;SDS011;70780;52.722;5.724;2023-06-22T15:10:09;5.07;;;3.95;;
81312;SDS011;70780;52.722;5.724;2023-06-22T15:12:41;6.03;;;4.93;;
81312;SDS011;70780;52.722;5.724;2023-06-22T15:15:10;6.60;;;4.72;;
81312;SDS011;70780;52.722;5.724;2023-06-22T15:17:40;7.07;;;4.22;;
81312;SDS011;70780;52.722;5.724;2023-06-22T15:20:09;6.32;;;4.68;;
81312;SDS011;70780;52.722;5.724;2023-06-22T15:22:39;5.20;;;3.60;;
81312;SDS011;70780;52.722;5.724;2023-06-22T15:25:08;4.35;;;3.55;;
81312;SDS011;70780;52.722;5.724;2023-06-22T15:27:40;4.97;;;3.50;;
81312;SDS011;70780;52.722;5.724;2023-06-22T15:30:09;4.68;;;3.63;;
81312;SDS011;70780;52.722;5.724;2023-06-22T15:32:40;5.55;;;4.07;;
81312;SDS011;70780;52.722;5.724;2023-06-22T15:35:12;6.30;;;4.47;;
81312;SDS011;70780;52.722;5.724;2023-06-22T15:37:43;7.75;;;5.25;;
81312;SDS011;70780;52.722;5.724;2023-06-22T15:40:12;8.00;;;6.45;;
81312;SDS011;70780;52.722;5.724;2023-06-22T15:42:44;11.70;;;9.98;;
81312;SDS011;70780;52.722;5.724;2023-06-22T15:45:13;14.63;;;10.90;;
81312;SDS011;70780;52.722;5.724;2023-06-22T15:47:43;19.10;;;15.85;;
81312;SDS011;70780;52.722;5.724;2023-06-22T15:50:12;16.23;;;14.25;;
81312;SDS011;70780;52.722;5.724;2023-06-22T15:52:42;24.58;;;19.98;;
81312;SDS011;70780;52.722;5.724;2023-06-22T15:55:13;16.88;;;14.57;;
81312;SDS011;70780;52.722;5.724;2023-06-22T15:57:45;19.73;;;17.02;;
81312;SDS011;70780;52.722;5.724;2023-06-22T16:00:15;17.83;;;14.32;;
81312;SDS011;70780;52.722;5.724;2023-06-22T16:02:46;20.67;;;17.77;;
81312;SDS011;70780;52.722;5.724;2023-06-22T16:05:16;20.88;;;17.15;;
81312;SDS011;70780;52.722;5.724;2023-06-22T16:07:45;24.67;;;20.13;;
81312;SDS011;70780;52.722;5.724;2023-06-22T16:10:15;30.38;;;25.67;;
81312;SDS011;70780;52.722;5.724;2023-06-22T16:12:48;52.63;;;43.30;;
81312;SDS011;70780;52.722;5.724;2023-06-22T16:15:18;52.80;;;45.33;;
81312;SDS011;70780;52.722;5.724;2023-06-22T16:17:48;47.47;;;39.50;;
81312;SDS011;70780;52.722;5.724;2023-06-22T16:20:17;44.50;;;38.38;;
81312;SDS011;70780;52.722;5.724;2023-06-22T16:22:47;46.22;;;39.33;;
81312;SDS011;70780;52.722;5.724;2023-06-22T16:25:17;38.92;;;34.05;;
81312;SDS011;70780;52.722;5.724;2023-06-22T16:27:49;35.55;;;31.73;;
81312;SDS011;70780;52.722;5.724;2023-06-22T21:43:05;2.92;;;1.70;;
81312;SDS011;70780;52.722;5.724;2023-06-22T21:45:34;3.30;;;1.63;;
81312;SDS011;70780;52.722;5.724;2023-06-22T21:48:04;3.58;;;1.88;;
81312;SDS011;70780;52.722;5.724;2023-06-22T21:50:33;3.55;;;2.13;;
81312;SDS011;70780;52.722;5.724;2023-06-22T21:53:02;2.97;;;1.98;;
81312;SDS011;70780;52.722;5.724;2023-06-22T21:55:32;3.50;;;2.08;;
81312;SDS011;70780;52.722;5.724;2023-06-22T21:58:01;2.50;;;1.70;;
81312;SDS011;70780;52.722;5.724;2023-06-22T22:00:33;2.70;;;1.70;;
81312;SDS011;70780;52.722;5.724;2023-06-22T22:03:02;3.00;;;2.03;;
81312;SDS011;70780;52.722;5.724;2023-06-22T22:05:32;3.78;;;2.15;;
81312;SDS011;70780;52.722;5.724;2023-06-22T22:08:01;3.10;;;2.00;;
81312;SDS011;70780;52.722;5.724;2023-06-22T22:10:30;2.63;;;1.77;;
81312;SDS011;70780;52.722;5.724;2023-06-22T22:13:02;5.18;;;2.10;;
81312;SDS011;70780;52.722;5.724;2023-06-22T22:15:34;3.20;;;1.90;;
81312;SDS011;70780;52.722;5.724;2023-06-22T22:18:04;2.72;;;1.88;;
81312;SDS011;70780;52.722;5.724;2023-06-22T22:20:33;3.00;;;2.33;;
81312;SDS011;70780;52.722;5.724;2023-06-22T22:23:03;3.95;;;1.80;;
81312;SDS011;70780;52.722;5.724;2023-06-22T22:25:32;2.60;;;1.83;;
81312;SDS011;70780;52.722;5.724;2023-06-22T22:28:02;3.05;;;1.90;;
81312;SDS011;70780;52.722;5.724;2023-06-22T22:30:34;5.25;;;2.25;;
81312;SDS011;70780;52.722;5.724;2023-06-22T22:33:03;2.88;;;2.05;;
81312;SDS011;70780;52.722;5.724;2023-06-22T22:35:32;3.30;;;2.67;;
81312;SDS011;70780;52.722;5.724;2023-06-22T22:38:02;2.90;;;1.88;;
81312;SDS011;70780;52.722;5.724;2023-06-22T22:40:31;3.40;;;1.90;;
81312;SDS011;70780;52.722;5.724;2023-06-22T23:45:05;2.17;;;1.83;;
81312;SDS011;70780;52.722;5.724;2023-06-22T23:47:36;3.10;;;1.80;;
81312;SDS011;70780;52.722;5.724;2023-06-22T23:50:06;2.83;;;1.88;;
81312;SDS011;70780;52.722;5.724;2023-06-22T23:52:36;4.03;;;1.90;;
81312;SDS011;70780;52.722;5.724;2023-06-22T23:55:05;2.88;;;1.92;;
81312;SDS011;70780;52.722;5.724;2023-06-22T23:57:37;3.55;;;2.30;;
